createdAt,value
2018-04-16T00:01:47.798Z,14.79
2018-04-16T00:05:10.690Z,14.78
2018-04-16T00:08:33.542Z,14.69
2018-04-16T00:11:56.366Z,14.54
2018-04-16T00:15:19.248Z,14.56
2018-04-16T00:18:42.182Z,14.49
2018-04-16T00:22:05.101Z,14.51
2018-04-16T00:25:29.457Z,14.50
2018-04-16T00:28:52.309Z,14.49
2018-04-16T00:32:20.724Z,14.44
2018-04-16T00:35:49.229Z,14.45
2018-04-16T00:39:18.556Z,14.48
2018-04-16T00:42:46.963Z,14.44
2018-04-16T00:46:15.482Z,14.66
2018-04-16T00:49:43.904Z,14.54
2018-04-16T00:53:12.359Z,14.71
2018-04-16T00:56:40.763Z,14.46
2018-04-16T01:00:11.019Z,14.51
2018-04-16T01:03:41.179Z,14.32
2018-04-16T01:07:09.615Z,14.42
2018-04-16T01:10:38.929Z,14.19
2018-04-16T01:14:08.176Z,14.43
2018-04-16T01:17:37.591Z,14.33
2018-04-16T01:21:05.995Z,14.23
2018-04-16T01:24:35.520Z,14.17
2018-04-16T01:28:04.106Z,13.87
2018-04-16T01:31:32.524Z,13.93
2018-04-16T01:35:00.908Z,13.96
2018-04-16T01:38:29.301Z,13.95
2018-04-16T01:41:57.867Z,13.79
2018-04-16T01:45:26.403Z,13.91
2018-04-16T01:52:58.265Z,13.79
2018-04-16T01:56:26.672Z,13.83
2018-04-16T02:03:57.013Z,14.18
2018-04-16T02:07:26.400Z,14.01
2018-04-16T02:10:55.744Z,14.20
2018-04-16T02:14:24.298Z,14.14
2018-04-16T02:17:52.919Z,13.90
2018-04-16T02:21:21.355Z,14.14
2018-04-16T02:24:50.623Z,14.32
2018-04-16T02:28:19.033Z,14.13
2018-04-16T02:31:48.885Z,14.10
2018-04-16T02:35:18.265Z,13.78
2018-04-16T02:42:47.452Z,13.95
2018-04-16T02:46:15.985Z,13.99
2018-04-16T02:49:44.513Z,13.83
2018-04-16T02:53:13.083Z,13.78
2018-04-16T02:56:41.629Z,14.20
2018-04-16T03:00:10.205Z,13.91
2018-04-16T03:03:38.795Z,14.22
2018-04-16T03:07:07.419Z,14.04
2018-04-16T03:10:36.704Z,13.80
2018-04-16T03:14:06.553Z,13.98
2018-04-16T03:17:34.894Z,14.08
2018-04-16T03:21:04.240Z,13.97
2018-04-16T03:24:32.641Z,14.19
2018-04-16T03:28:01.232Z,13.98
2018-04-16T03:35:26.547Z,14.05
2018-04-16T03:38:55.042Z,13.96
2018-04-16T03:42:23.494Z,13.94
2018-04-16T03:45:52.030Z,13.74
2018-04-16T03:49:20.671Z,13.75
2018-04-16T03:52:49.216Z,13.83
2018-04-16T03:56:12.149Z,13.79
2018-04-16T03:59:36.501Z,13.90
2018-04-16T04:02:59.507Z,13.82
2018-04-16T04:06:22.427Z,13.75
2018-04-16T04:09:46.789Z,13.98
2018-04-16T04:13:09.703Z,13.77
2018-04-16T04:16:32.649Z,14.00
2018-04-16T04:19:56.280Z,13.56
2018-04-16T04:23:31.061Z,13.63
2018-04-16T04:27:05.878Z,13.64
2018-04-16T04:30:39.535Z,13.68
2018-04-16T04:34:03.289Z,13.56
2018-04-16T04:37:26.162Z,13.76
2018-04-16T04:40:49.198Z,13.82
2018-04-16T04:44:12.095Z,13.87
2018-04-16T04:47:35.757Z,13.65
2018-04-16T04:50:58.660Z,13.86
2018-04-16T04:54:22.319Z,13.94
2018-04-16T04:57:46.035Z,13.64
2018-04-16T05:01:09.807Z,13.64
2018-04-16T05:04:33.424Z,13.79
2018-04-16T05:07:56.413Z,14.14
2018-04-16T05:11:19.343Z,13.91
2018-04-16T05:14:42.989Z,13.94
2018-04-16T05:18:05.881Z,13.56
2018-04-16T05:21:28.769Z,13.75
2018-04-16T05:24:51.633Z,13.62
2018-04-16T05:28:14.577Z,13.56
2018-04-16T05:31:37.465Z,13.64
2018-04-16T05:35:00.405Z,13.53
2018-04-16T05:38:24.083Z,13.61
2018-04-16T05:41:46.983Z,13.70
2018-04-16T05:45:09.951Z,13.72
2018-04-16T05:48:32.860Z,13.88
2018-04-16T05:51:55.817Z,14.20
2018-04-16T05:55:18.724Z,13.86
2018-04-16T05:58:42.443Z,13.89
2018-04-16T06:02:06.074Z,13.74
2018-04-16T06:05:29.980Z,13.88
2018-04-16T06:08:52.864Z,14.05
2018-04-16T06:12:15.799Z,13.94
2018-04-16T06:18:57.905Z,13.99
2018-04-16T06:22:20.787Z,13.91
2018-04-16T06:25:44.433Z,14.22
2018-04-16T06:29:08.149Z,14.58
2018-04-16T06:32:31.977Z,14.29
2018-04-16T06:35:54.884Z,14.35
2018-04-16T06:39:18.564Z,14.32
2018-04-16T06:42:41.467Z,14.16
2018-04-16T06:46:04.361Z,14.18
2018-04-16T06:49:28.116Z,14.17
2018-04-16T06:52:50.986Z,14.00
2018-04-16T06:56:15.324Z,14.10
2018-04-16T06:59:38.200Z,14.18
2018-04-16T07:03:01.089Z,14.41
2018-04-16T07:06:23.925Z,14.49
2018-04-16T07:09:46.794Z,14.40
2018-04-16T07:13:09.659Z,14.58
2018-04-16T07:16:32.525Z,14.46
2018-04-16T07:19:56.244Z,14.49
2018-04-16T07:23:19.859Z,14.88
2018-04-16T07:26:42.762Z,14.73
2018-04-16T07:30:05.598Z,14.59
2018-04-16T07:33:29.241Z,14.54
2018-04-16T07:36:52.849Z,14.95
2018-04-16T07:40:15.731Z,15.08
2018-04-16T07:43:40.213Z,15.15
2018-04-16T07:47:03.816Z,15.35
2018-04-16T07:50:27.467Z,15.28
2018-04-16T07:53:50.370Z,15.31
2018-04-16T07:57:13.245Z,15.35
2018-04-16T08:00:36.953Z,15.54
2018-04-16T08:03:59.902Z,15.44
2018-04-16T08:07:23.558Z,15.47
2018-04-16T08:10:46.459Z,15.43
2018-04-16T08:14:10.281Z,15.43
2018-04-16T08:17:33.152Z,15.75
2018-04-16T08:20:56.191Z,16.10
2018-04-16T08:24:20.273Z,15.93
2018-04-16T08:27:43.168Z,16.05
2018-04-16T08:31:06.801Z,15.76
2018-04-16T08:34:30.435Z,15.66
2018-04-16T08:37:53.332Z,15.57
2018-04-16T08:41:16.255Z,15.53
2018-04-16T08:44:39.072Z,15.23
2018-04-16T08:48:02.711Z,15.18
2018-04-16T08:51:25.674Z,15.09
2018-04-16T08:54:48.568Z,15.04
2018-04-16T08:58:12.208Z,15.00
2018-04-16T09:01:35.953Z,15.38
2018-04-16T09:04:58.901Z,15.82
2018-04-16T09:08:21.757Z,15.80
2018-04-16T09:11:44.643Z,16.12
2018-04-16T09:15:07.516Z,16.23
2018-04-16T09:18:30.374Z,16.26
2018-04-16T09:21:53.228Z,16.58
2018-04-16T09:25:16.231Z,16.41
2018-04-16T09:28:39.888Z,16.99
2018-04-16T09:32:03.510Z,17.11
2018-04-16T09:35:27.028Z,17.54
2018-04-16T09:46:45.038Z,17.93
2018-04-16T09:50:08.129Z,18.46
2018-04-16T09:53:32.064Z,18.74
2018-04-16T09:56:55.021Z,18.15
2018-04-16T10:00:24.342Z,18.31
2018-04-16T10:03:48.964Z,18.20
2018-04-16T10:07:11.859Z,18.34
2018-04-16T10:10:34.733Z,17.83
2018-04-16T10:13:57.587Z,17.73
2018-04-16T10:17:21.727Z,17.49
2018-04-16T10:20:44.607Z,17.58
2018-04-16T10:24:08.828Z,17.49
2018-04-16T10:27:31.796Z,17.13
2018-04-16T10:30:54.781Z,17.14
2018-04-16T10:34:18.430Z,16.96
2018-04-16T10:37:41.433Z,17.32
2018-04-16T10:41:04.443Z,17.18
2018-04-16T10:44:28.156Z,17.12
2018-04-16T10:47:51.182Z,17.46
2018-04-16T10:51:14.984Z,17.52
2018-04-16T10:54:38.811Z,17.16
2018-04-16T10:58:01.727Z,17.31
2018-04-16T11:01:24.663Z,17.45
2018-04-16T11:04:47.729Z,18.64
2018-04-16T11:08:10.676Z,18.66
2018-04-16T11:11:34.412Z,18.25
2018-04-16T11:14:57.307Z,18.81
2018-04-16T11:18:20.989Z,18.80
2018-04-16T11:21:43.870Z,18.56
2018-04-16T11:25:06.776Z,18.18
2018-04-16T11:28:29.621Z,17.80
2018-04-16T11:31:52.537Z,18.44
2018-04-16T11:35:15.452Z,18.81
2018-04-16T11:38:38.327Z,19.37
2018-04-16T11:42:01.241Z,19.08
2018-04-16T11:45:24.163Z,18.76
2018-04-16T11:48:47.879Z,18.54
2018-04-16T11:52:10.869Z,18.49
2018-04-16T11:55:33.734Z,18.16
2018-04-16T11:58:56.657Z,18.61
2018-04-16T12:02:19.579Z,18.78
2018-04-16T12:05:43.250Z,18.79
2018-04-16T12:09:06.143Z,18.94
2018-04-16T12:12:29.107Z,18.84
2018-04-16T12:15:51.962Z,19.05
2018-04-16T12:19:14.863Z,19.33
2018-04-16T12:22:38.477Z,18.93
2018-04-16T12:26:02.291Z,19.34
2018-04-16T12:29:25.212Z,19.17
2018-04-16T12:32:48.128Z,18.88
2018-04-16T12:36:11.764Z,19.44
2018-04-16T12:39:35.526Z,19.12
2018-04-16T12:42:58.397Z,19.61
2018-04-16T12:46:21.350Z,18.99
2018-04-16T12:49:44.293Z,19.44
2018-04-16T12:53:07.141Z,19.59
2018-04-16T12:56:29.995Z,19.17
2018-04-16T12:59:52.856Z,19.16
2018-04-16T13:03:15.761Z,18.78
2018-04-16T13:06:38.648Z,18.12
2018-04-16T13:10:02.341Z,17.54
2018-04-16T13:13:25.256Z,17.04
2018-04-16T13:16:48.251Z,17.03
2018-04-16T13:20:11.254Z,16.20
2018-04-16T13:23:34.223Z,15.62
2018-04-16T13:26:57.101Z,15.30
2018-04-16T13:30:21.473Z,14.90
2018-04-16T13:33:44.309Z,14.85
2018-04-16T13:37:07.337Z,14.78
2018-04-16T13:40:30.926Z,15.09
2018-04-16T13:43:53.835Z,14.95
2018-04-16T13:47:16.749Z,15.02
2018-04-16T13:50:40.381Z,14.95
2018-04-16T13:54:03.419Z,15.26
2018-04-16T13:57:26.320Z,15.51
2018-04-16T14:00:49.195Z,15.19
2018-04-16T14:04:12.075Z,15.05
2018-04-16T14:07:43.434Z,15.26
2018-04-16T14:11:07.169Z,15.27
2018-04-16T14:14:30.045Z,15.27
2018-04-16T14:17:53.503Z,15.51
2018-04-16T14:21:17.138Z,15.65
2018-04-16T14:24:40.780Z,15.45
2018-04-16T14:28:04.433Z,15.62
2018-04-16T14:31:28.093Z,15.65
2018-04-16T14:34:51.735Z,15.73
2018-04-16T14:38:15.455Z,16.09
2018-04-16T14:41:39.193Z,16.18
2018-04-16T14:45:02.105Z,15.84
2018-04-16T14:48:25.715Z,15.92
2018-04-16T14:51:48.703Z,15.87
2018-04-16T14:55:11.634Z,16.03
2018-04-16T14:58:34.480Z,15.92
2018-04-16T15:01:57.334Z,15.88
2018-04-16T15:05:20.236Z,16.01
2018-04-16T15:08:43.112Z,16.24
2018-04-16T15:12:06.820Z,16.22
2018-04-16T15:15:29.689Z,16.21
2018-04-16T15:18:53.360Z,16.37
2018-04-16T15:22:16.231Z,16.32
2018-04-16T15:25:39.273Z,16.33
2018-04-16T15:29:02.161Z,16.32
2018-04-16T15:32:25.100Z,16.25
2018-04-16T15:35:48.844Z,16.15
2018-04-16T15:39:11.717Z,16.28
2018-04-16T15:42:34.705Z,16.27
2018-04-16T15:45:59.283Z,16.33
2018-04-16T15:49:22.170Z,16.28
2018-04-16T15:52:46.731Z,16.13
2018-04-16T15:56:09.654Z,16.21
2018-04-16T15:59:32.515Z,16.24
2018-04-16T16:02:56.125Z,16.17
2018-04-16T16:06:19.813Z,16.21
2018-04-16T16:09:42.788Z,16.15
2018-04-16T16:13:05.779Z,16.17
2018-04-16T16:16:28.705Z,16.06
2018-04-16T16:19:51.570Z,16.33
2018-04-16T16:23:15.209Z,16.21
2018-04-16T16:26:38.077Z,16.18
2018-04-16T16:30:01.708Z,16.09
2018-04-16T16:33:24.859Z,16.20
2018-04-16T16:36:47.796Z,16.20
2018-04-16T16:40:11.626Z,16.19
2018-04-16T16:43:34.474Z,16.23
2018-04-16T16:46:57.423Z,16.15
2018-04-16T16:50:21.273Z,16.22
2018-04-16T16:53:44.225Z,16.09
2018-04-16T16:57:07.207Z,16.06
2018-04-16T17:00:30.848Z,16.13
2018-04-16T17:03:54.517Z,16.06
2018-04-16T17:07:17.452Z,15.85
2018-04-16T17:10:40.350Z,16.01
2018-04-16T17:14:03.269Z,16.07
2018-04-16T17:17:26.271Z,15.97
2018-04-16T17:20:49.152Z,16.16
2018-04-16T17:24:12.063Z,16.11
2018-04-16T17:27:34.948Z,15.92
2018-04-16T17:30:58.628Z,15.86
2018-04-16T17:34:21.568Z,15.93
2018-04-16T17:37:44.504Z,15.87
2018-04-16T17:41:08.170Z,15.83
2018-04-16T17:44:31.168Z,15.86
2018-04-16T17:47:54.268Z,15.78
2018-04-16T17:51:17.413Z,15.96
2018-04-16T17:54:41.120Z,15.86
2018-04-16T17:58:04.017Z,15.81
2018-04-16T18:01:26.993Z,15.81
2018-04-16T18:04:51.828Z,15.88
2018-04-16T18:08:15.258Z,15.94
2018-04-16T18:11:38.149Z,15.94
2018-04-16T18:15:01.840Z,16.10
2018-04-16T18:18:24.699Z,15.96
2018-04-16T18:21:52.373Z,15.93
2018-04-16T18:25:15.415Z,16.05
2018-04-16T18:28:40.009Z,16.01
2018-04-16T18:32:03.054Z,15.74
2018-04-16T18:35:25.912Z,15.59
2018-04-16T18:38:48.749Z,15.57
2018-04-16T18:42:11.645Z,15.50
2018-04-16T18:45:35.238Z,15.36
2018-04-16T18:48:58.091Z,15.34
2018-04-16T18:52:20.970Z,15.37
2018-04-16T18:55:43.878Z,15.31
2018-04-16T18:59:06.817Z,15.44
2018-04-16T19:02:30.932Z,15.23
2018-04-16T19:05:53.905Z,14.92
2018-04-16T19:09:17.533Z,14.90
2018-04-16T19:12:41.175Z,14.90
2018-04-16T19:16:06.995Z,14.98
2018-04-16T19:19:29.869Z,14.78
2018-04-16T19:22:53.510Z,14.94
2018-04-16T19:26:17.137Z,14.80
2018-04-16T19:29:39.984Z,14.68
2018-04-16T19:33:08.518Z,14.64
2018-04-16T19:36:32.292Z,14.60
2018-04-16T19:39:56.265Z,14.58
2018-04-16T19:43:19.917Z,14.48
2018-04-16T19:46:42.823Z,14.28
2018-04-16T19:50:06.475Z,14.33
2018-04-16T19:53:30.141Z,14.18
2018-04-16T19:56:59.450Z,14.43
2018-04-16T20:00:23.087Z,14.32
2018-04-16T20:03:52.375Z,14.24
2018-04-16T20:07:15.228Z,14.35
2018-04-16T20:10:38.126Z,14.07
2018-04-16T20:14:01.074Z,14.01
2018-04-16T20:17:23.930Z,13.58
2018-04-16T20:20:46.839Z,13.29
2018-04-16T20:24:09.707Z,13.54
2018-04-16T20:27:32.648Z,13.35
2018-04-16T20:30:56.270Z,13.40
2018-04-16T20:34:19.200Z,13.24
2018-04-16T20:37:42.822Z,13.27
2018-04-16T20:41:05.680Z,13.35
2018-04-16T20:44:28.602Z,13.08
2018-04-16T20:47:51.534Z,13.17
2018-04-16T20:51:14.405Z,13.26
2018-04-16T20:54:37.271Z,13.18
2018-04-16T20:58:00.160Z,13.45
2018-04-16T21:01:24.538Z,13.39
2018-04-16T21:04:48.163Z,13.22
2018-04-16T21:08:11.072Z,13.02
2018-04-16T21:11:33.914Z,13.07
2018-04-16T21:14:56.796Z,13.03
2018-04-16T21:18:20.404Z,13.04
2018-04-16T21:21:43.375Z,12.90
2018-04-16T21:25:07.063Z,13.07
2018-04-16T21:28:29.891Z,13.12
2018-04-16T21:31:53.844Z,12.96
2018-04-16T21:35:16.743Z,13.27
2018-04-16T21:38:39.719Z,13.01
2018-04-16T21:42:03.428Z,12.82
2018-04-16T21:45:26.399Z,12.85
2018-04-16T21:48:49.309Z,12.88
2018-04-16T21:52:12.168Z,12.84
2018-04-16T21:55:35.159Z,13.07
2018-04-16T21:58:58.010Z,13.40
2018-04-16T22:02:21.130Z,13.18
2018-04-16T22:05:44.118Z,13.04
2018-04-16T22:09:07.089Z,13.18
2018-04-16T22:12:32.000Z,13.00
2018-04-16T22:15:54.989Z,13.28
2018-04-16T22:19:18.009Z,13.51
2018-04-16T22:22:40.974Z,13.57
2018-04-16T22:26:04.070Z,13.53
2018-04-16T22:29:27.025Z,13.43
2018-04-16T22:32:50.748Z,13.45
2018-04-16T22:36:14.740Z,13.57
2018-04-16T22:39:39.007Z,13.66
2018-04-16T22:43:02.000Z,13.68
2018-04-16T22:46:24.964Z,13.39
2018-04-16T22:49:48.716Z,13.46
2018-04-16T22:53:12.178Z,13.52
2018-04-16T22:56:35.192Z,13.85
2018-04-16T22:59:58.915Z,13.72
2018-04-16T23:03:21.914Z,13.68
2018-04-16T23:06:44.900Z,13.73
2018-04-16T23:10:08.629Z,13.65
2018-04-16T23:13:31.644Z,13.60
2018-04-16T23:16:54.591Z,13.59
2018-04-16T23:20:18.481Z,13.56
2018-04-16T23:23:41.432Z,13.67
2018-04-16T23:27:04.383Z,13.68
2018-04-16T23:30:28.086Z,13.47
2018-04-16T23:33:51.075Z,13.51
2018-04-16T23:37:14.065Z,13.26
2018-04-16T23:40:36.973Z,13.34
2018-04-16T23:43:59.953Z,13.44
2018-04-16T23:47:22.883Z,13.47
2018-04-16T23:50:45.804Z,13.23
2018-04-16T23:54:08.750Z,13.14
2018-04-16T23:57:33.224Z,12.98
